sensor_id;sensor_type;location;lat;lon;timestamp;P1;durP1;ratioP1;P2;durP2;ratioP2
71629;SDS011;59479;51.902;8.212;2023-07-30T00:01:32;9.00;;;1.57;;
71629;SDS011;59479;51.902;8.212;2023-07-30T00:03:58;3.65;;;1.92;;
71629;SDS011;59479;51.902;8.212;2023-07-30T00:06:23;3.73;;;1.80;;
71629;SDS011;59479;51.902;8.212;2023-07-30T00:08:49;3.90;;;1.40;;
71629;SDS011;59479;51.902;8.212;2023-07-30T00:11:14;5.37;;;1.53;;
71629;SDS011;59479;51.902;8.212;2023-07-30T00:13:39;3.63;;;1.70;;
71629;SDS011;59479;51.902;8.212;2023-07-30T00:16:04;4.00;;;1.80;;
71629;SDS011;59479;51.902;8.212;2023-07-30T00:18:30;6.78;;;1.77;;
71629;SDS011;59479;51.902;8.212;2023-07-30T00:20:55;4.03;;;1.53;;
71629;SDS011;59479;51.902;8.212;2023-07-30T00:23:20;4.00;;;1.80;;
71629;SDS011;59479;51.902;8.212;2023-07-30T00:25:46;4.03;;;1.43;;
71629;SDS011;59479;51.902;8.212;2023-07-30T00:28:11;3.63;;;1.63;;
71629;SDS011;59479;51.902;8.212;2023-07-30T00:30:36;3.73;;;1.53;;
71629;SDS011;59479;51.902;8.212;2023-07-30T00:33:02;5.03;;;1.60;;
71629;SDS011;59479;51.902;8.212;2023-07-30T00:35:27;5.97;;;2.20;;
71629;SDS011;59479;51.902;8.212;2023-07-30T00:37:52;4.38;;;1.67;;
71629;SDS011;59479;51.902;8.212;2023-07-30T00:40:18;3.50;;;1.43;;
71629;SDS011;59479;51.902;8.212;2023-07-30T00:42:43;5.60;;;2.00;;
71629;SDS011;59479;51.902;8.212;2023-07-30T00:45:09;3.73;;;1.77;;
71629;SDS011;59479;51.902;8.212;2023-07-30T00:47:34;6.13;;;1.92;;
71629;SDS011;59479;51.902;8.212;2023-07-30T00:50:01;4.28;;;1.83;;
71629;SDS011;59479;51.902;8.212;2023-07-30T00:52:27;3.65;;;1.60;;
71629;SDS011;59479;51.902;8.212;2023-07-30T00:54:53;3.83;;;1.80;;
71629;SDS011;59479;51.902;8.212;2023-07-30T00:57:19;6.68;;;1.90;;
71629;SDS011;59479;51.902;8.212;2023-07-30T00:59:45;5.78;;;1.80;;
71629;SDS011;59479;51.902;8.212;2023-07-30T01:02:12;4.55;;;1.85;;
71629;SDS011;59479;51.902;8.212;2023-07-30T01:04:38;3.50;;;1.63;;
71629;SDS011;59479;51.902;8.212;2023-07-30T01:07:04;5.63;;;2.33;;
71629;SDS011;59479;51.902;8.212;2023-07-30T01:09:31;6.65;;;2.05;;
71629;SDS011;59479;51.902;8.212;2023-07-30T01:11:56;5.40;;;1.80;;
71629;SDS011;59479;51.902;8.212;2023-07-30T01:14:23;4.35;;;1.73;;
71629;SDS011;59479;51.902;8.212;2023-07-30T01:16:51;4.20;;;1.60;;
71629;SDS011;59479;51.902;8.212;2023-07-30T01:19:16;3.57;;;1.70;;
71629;SDS011;59479;51.902;8.212;2023-07-30T01:21:42;4.78;;;1.70;;
71629;SDS011;59479;51.902;8.212;2023-07-30T01:24:07;4.13;;;1.85;;
71629;SDS011;59479;51.902;8.212;2023-07-30T01:29:32;4.40;;;1.77;;
71629;SDS011;59479;51.902;8.212;2023-07-30T01:32:04;3.55;;;1.50;;
71629;SDS011;59479;51.902;8.212;2023-07-30T01:34:34;5.40;;;2.10;;
71629;SDS011;59479;51.902;8.212;2023-07-30T01:37:01;4.30;;;1.85;;
71629;SDS011;59479;51.902;8.212;2023-07-30T01:39:27;4.65;;;2.20;;
71629;SDS011;59479;51.902;8.212;2023-07-30T01:41:53;3.97;;;1.80;;
71629;SDS011;59479;51.902;8.212;2023-07-30T01:44:19;4.00;;;1.90;;
71629;SDS011;59479;51.902;8.212;2023-07-30T01:46:45;3.75;;;1.58;;
71629;SDS011;59479;51.902;8.212;2023-07-30T01:49:10;4.37;;;1.60;;
71629;SDS011;59479;51.902;8.212;2023-07-30T01:51:35;3.97;;;1.70;;
71629;SDS011;59479;51.902;8.212;2023-07-30T01:54:01;6.80;;;2.00;;
71629;SDS011;59479;51.902;8.212;2023-07-30T01:56:26;3.90;;;1.80;;
71629;SDS011;59479;51.902;8.212;2023-07-30T01:58:51;4.37;;;1.90;;
71629;SDS011;59479;51.902;8.212;2023-07-30T02:01:17;5.50;;;2.50;;
71629;SDS011;59479;51.902;8.212;2023-07-30T02:03:42;5.18;;;2.17;;
71629;SDS011;59479;51.902;8.212;2023-07-30T02:06:07;5.07;;;2.20;;
71629;SDS011;59479;51.902;8.212;2023-07-30T02:08:33;3.80;;;1.70;;
71629;SDS011;59479;51.902;8.212;2023-07-30T02:10:58;6.47;;;2.20;;
71629;SDS011;59479;51.902;8.212;2023-07-30T02:13:24;5.57;;;2.00;;
71629;SDS011;59479;51.902;8.212;2023-07-30T02:15:50;7.00;;;2.42;;
71629;SDS011;59479;51.902;8.212;2023-07-30T02:18:16;5.43;;;2.10;;
71629;SDS011;59479;51.902;8.212;2023-07-30T02:20:41;4.40;;;1.90;;
71629;SDS011;59479;51.902;8.212;2023-07-30T02:23:07;4.37;;;2.00;;
71629;SDS011;59479;51.902;8.212;2023-07-30T02:25:32;5.93;;;1.85;;
71629;SDS011;59479;51.902;8.212;2023-07-30T02:27:58;5.07;;;1.90;;
71629;SDS011;59479;51.902;8.212;2023-07-30T02:30:24;6.53;;;1.85;;
71629;SDS011;59479;51.902;8.212;2023-07-30T02:32:50;5.60;;;1.90;;
71629;SDS011;59479;51.902;8.212;2023-07-30T02:35:15;3.43;;;1.40;;
71629;SDS011;59479;51.902;8.212;2023-07-30T02:37:40;5.30;;;1.83;;
71629;SDS011;59479;51.902;8.212;2023-07-30T02:40:06;5.80;;;1.77;;
71629;SDS011;59479;51.902;8.212;2023-07-30T02:42:31;3.53;;;1.52;;
71629;SDS011;59479;51.902;8.212;2023-07-30T02:44:57;5.37;;;1.67;;
71629;SDS011;59479;51.902;8.212;2023-07-30T02:47:22;5.50;;;1.80;;
71629;SDS011;59479;51.902;8.212;2023-07-30T02:49:47;6.43;;;1.60;;
71629;SDS011;59479;51.902;8.212;2023-07-30T02:52:13;4.80;;;1.70;;
71629;SDS011;59479;51.902;8.212;2023-07-30T02:54:38;4.23;;;1.60;;
71629;SDS011;59479;51.902;8.212;2023-07-30T02:57:03;3.63;;;1.30;;
71629;SDS011;59479;51.902;8.212;2023-07-30T02:59:29;4.30;;;1.35;;
71629;SDS011;59479;51.902;8.212;2023-07-30T03:01:54;4.80;;;1.70;;
71629;SDS011;59479;51.902;8.212;2023-07-30T03:04:19;3.90;;;1.60;;
71629;SDS011;59479;51.902;8.212;2023-07-30T03:06:45;4.10;;;1.60;;
71629;SDS011;59479;51.902;8.212;2023-07-30T03:09:10;4.80;;;1.47;;
71629;SDS011;59479;51.902;8.212;2023-07-30T03:11:35;3.80;;;1.57;;
71629;SDS011;59479;51.902;8.212;2023-07-30T03:14:01;5.68;;;1.63;;
71629;SDS011;59479;51.902;8.212;2023-07-30T03:16:26;5.80;;;1.95;;
71629;SDS011;59479;51.902;8.212;2023-07-30T03:18:51;5.83;;;1.90;;
71629;SDS011;59479;51.902;8.212;2023-07-30T03:21:17;3.57;;;1.67;;
71629;SDS011;59479;51.902;8.212;2023-07-30T03:23:42;6.10;;;1.73;;
71629;SDS011;59479;51.902;8.212;2023-07-30T03:26:09;4.30;;;1.85;;
71629;SDS011;59479;51.902;8.212;2023-07-30T03:28:35;4.77;;;1.40;;
71629;SDS011;59479;51.902;8.212;2023-07-30T03:31:00;4.95;;;1.80;;
71629;SDS011;59479;51.902;8.212;2023-07-30T03:33:26;3.57;;;1.50;;
71629;SDS011;59479;51.902;8.212;2023-07-30T03:35:51;4.57;;;1.77;;
71629;SDS011;59479;51.902;8.212;2023-07-30T03:38:16;6.27;;;1.60;;
71629;SDS011;59479;51.902;8.212;2023-07-30T03:40:42;5.87;;;1.60;;
71629;SDS011;59479;51.902;8.212;2023-07-30T03:43:07;4.53;;;1.60;;
71629;SDS011;59479;51.902;8.212;2023-07-30T03:45:33;4.38;;;1.67;;
71629;SDS011;59479;51.902;8.212;2023-07-30T03:47:58;11.23;;;1.67;;
71629;SDS011;59479;51.902;8.212;2023-07-30T03:50:23;5.40;;;1.70;;
71629;SDS011;59479;51.902;8.212;2023-07-30T03:52:49;4.80;;;1.63;;
71629;SDS011;59479;51.902;8.212;2023-07-30T03:55:14;3.63;;;1.43;;
71629;SDS011;59479;51.902;8.212;2023-07-30T03:57:40;4.43;;;1.50;;
71629;SDS011;59479;51.902;8.212;2023-07-30T04:00:05;5.20;;;1.35;;
71629;SDS011;59479;51.902;8.212;2023-07-30T04:02:31;4.05;;;1.65;;
71629;SDS011;59479;51.902;8.212;2023-07-30T04:04:56;3.80;;;1.43;;
71629;SDS011;59479;51.902;8.212;2023-07-30T04:07:22;4.77;;;1.70;;
71629;SDS011;59479;51.902;8.212;2023-07-30T04:09:47;4.05;;;1.40;;
71629;SDS011;59479;51.902;8.212;2023-07-30T04:12:12;3.75;;;1.20;;
71629;SDS011;59479;51.902;8.212;2023-07-30T04:14:38;4.40;;;1.77;;
71629;SDS011;59479;51.902;8.212;2023-07-30T04:17:03;4.27;;;1.67;;
71629;SDS011;59479;51.902;8.212;2023-07-30T04:19:28;4.90;;;1.80;;
71629;SDS011;59479;51.902;8.212;2023-07-30T04:21:54;5.03;;;1.77;;
71629;SDS011;59479;51.902;8.212;2023-07-30T04:24:19;4.50;;;1.20;;
71629;SDS011;59479;51.902;8.212;2023-07-30T04:26:44;3.87;;;1.67;;
71629;SDS011;59479;51.902;8.212;2023-07-30T04:29:10;3.30;;;1.50;;
71629;SDS011;59479;51.902;8.212;2023-07-30T04:31:35;9.10;;;2.17;;
71629;SDS011;59479;51.902;8.212;2023-07-30T04:34:00;7.27;;;1.47;;
71629;SDS011;59479;51.902;8.212;2023-07-30T04:36:26;5.57;;;1.47;;
71629;SDS011;59479;51.902;8.212;2023-07-30T04:38:51;4.23;;;1.33;;
71629;SDS011;59479;51.902;8.212;2023-07-30T04:41:17;5.50;;;1.50;;
71629;SDS011;59479;51.902;8.212;2023-07-30T04:43:43;4.15;;;1.40;;
71629;SDS011;59479;51.902;8.212;2023-07-30T04:46:09;4.90;;;1.83;;
71629;SDS011;59479;51.902;8.212;2023-07-30T04:48:34;5.77;;;1.40;;
71629;SDS011;59479;51.902;8.212;2023-07-30T04:50:59;3.92;;;1.40;;
71629;SDS011;59479;51.902;8.212;2023-07-30T04:53:25;3.13;;;1.30;;
71629;SDS011;59479;51.902;8.212;2023-07-30T04:55:56;6.07;;;1.70;;
71629;SDS011;59479;51.902;8.212;2023-07-30T04:58:24;3.38;;;1.23;;
71629;SDS011;59479;51.902;8.212;2023-07-30T05:00:50;8.33;;;1.67;;
71629;SDS011;59479;51.902;8.212;2023-07-30T05:03:15;6.40;;;1.43;;
71629;SDS011;59479;51.902;8.212;2023-07-30T05:05:41;4.33;;;1.53;;
71629;SDS011;59479;51.902;8.212;2023-07-30T05:08:06;4.25;;;1.45;;
71629;SDS011;59479;51.902;8.212;2023-07-30T05:10:31;3.27;;;1.30;;
71629;SDS011;59479;51.902;8.212;2023-07-30T05:12:57;4.47;;;1.87;;
71629;SDS011;59479;51.902;8.212;2023-07-30T05:15:22;3.30;;;1.30;;
71629;SDS011;59479;51.902;8.212;2023-07-30T05:17:47;4.97;;;1.30;;
71629;SDS011;59479;51.902;8.212;2023-07-30T05:20:13;3.40;;;1.40;;
71629;SDS011;59479;51.902;8.212;2023-07-30T05:22:38;3.90;;;1.50;;
71629;SDS011;59479;51.902;8.212;2023-07-30T05:25:03;3.53;;;1.40;;
71629;SDS011;59479;51.902;8.212;2023-07-30T05:27:29;4.40;;;1.93;;
71629;SDS011;59479;51.902;8.212;2023-07-30T05:29:56;3.85;;;1.55;;
71629;SDS011;59479;51.902;8.212;2023-07-30T05:32:22;4.43;;;1.27;;
71629;SDS011;59479;51.902;8.212;2023-07-30T05:34:47;5.07;;;1.38;;
71629;SDS011;59479;51.902;8.212;2023-07-30T05:37:12;3.30;;;1.37;;
71629;SDS011;59479;51.902;8.212;2023-07-30T05:39:38;4.93;;;1.73;;
71629;SDS011;59479;51.902;8.212;2023-07-30T05:42:03;7.03;;;1.40;;
71629;SDS011;59479;51.902;8.212;2023-07-30T05:44:28;5.17;;;1.30;;
71629;SDS011;59479;51.902;8.212;2023-07-30T05:46:54;4.60;;;1.43;;
71629;SDS011;59479;51.902;8.212;2023-07-30T05:49:19;8.32;;;1.60;;
71629;SDS011;59479;51.902;8.212;2023-07-30T05:51:45;6.70;;;1.50;;
71629;SDS011;59479;51.902;8.212;2023-07-30T05:54:10;3.50;;;1.47;;
71629;SDS011;59479;51.902;8.212;2023-07-30T05:56:36;4.60;;;1.58;;
71629;SDS011;59479;51.902;8.212;2023-07-30T05:59:01;7.87;;;1.90;;
71629;SDS011;59479;51.902;8.212;2023-07-30T06:01:26;5.40;;;1.57;;
71629;SDS011;59479;51.902;8.212;2023-07-30T06:03:52;5.63;;;1.50;;
71629;SDS011;59479;51.902;8.212;2023-07-30T06:06:17;5.50;;;1.67;;
71629;SDS011;59479;51.902;8.212;2023-07-30T06:08:44;3.60;;;1.67;;
71629;SDS011;59479;51.902;8.212;2023-07-30T06:11:10;4.40;;;1.60;;
71629;SDS011;59479;51.902;8.212;2023-07-30T06:13:35;6.27;;;1.73;;
71629;SDS011;59479;51.902;8.212;2023-07-30T06:16:00;6.10;;;1.43;;
71629;SDS011;59479;51.902;8.212;2023-07-30T06:18:25;4.87;;;1.97;;
71629;SDS011;59479;51.902;8.212;2023-07-30T06:20:51;4.10;;;1.40;;
71629;SDS011;59479;51.902;8.212;2023-07-30T06:23:16;4.55;;;1.55;;
71629;SDS011;59479;51.902;8.212;2023-07-30T06:25:41;10.63;;;1.97;;
71629;SDS011;59479;51.902;8.212;2023-07-30T06:28:07;5.27;;;2.07;;
71629;SDS011;59479;51.902;8.212;2023-07-30T06:30:32;6.07;;;2.27;;
71629;SDS011;59479;51.902;8.212;2023-07-30T06:32:58;6.60;;;2.63;;
71629;SDS011;59479;51.902;8.212;2023-07-30T06:35:23;5.80;;;2.37;;
71629;SDS011;59479;51.902;8.212;2023-07-30T06:37:49;4.55;;;2.15;;
71629;SDS011;59479;51.902;8.212;2023-07-30T06:40:15;6.00;;;2.10;;
71629;SDS011;59479;51.902;8.212;2023-07-30T06:42:41;6.50;;;2.72;;
71629;SDS011;59479;51.902;8.212;2023-07-30T06:45:06;5.97;;;3.17;;
71629;SDS011;59479;51.902;8.212;2023-07-30T06:47:32;8.17;;;2.93;;
71629;SDS011;59479;51.902;8.212;2023-07-30T06:49:57;8.68;;;2.70;;
71629;SDS011;59479;51.902;8.212;2023-07-30T06:52:23;11.03;;;3.50;;
71629;SDS011;59479;51.902;8.212;2023-07-30T06:54:48;10.37;;;3.87;;
71629;SDS011;59479;51.902;8.212;2023-07-30T06:57:13;12.47;;;4.50;;
71629;SDS011;59479;51.902;8.212;2023-07-30T06:59:39;7.97;;;3.97;;
71629;SDS011;59479;51.902;8.212;2023-07-30T07:02:04;9.20;;;4.87;;
71629;SDS011;59479;51.902;8.212;2023-07-30T07:04:30;8.13;;;4.63;;
71629;SDS011;59479;51.902;8.212;2023-07-30T07:06:56;9.60;;;4.20;;
71629;SDS011;59479;51.902;8.212;2023-07-30T07:09:21;10.00;;;4.73;;
71629;SDS011;59479;51.902;8.212;2023-07-30T07:11:46;9.88;;;4.72;;
71629;SDS011;59479;51.902;8.212;2023-07-30T07:14:12;8.73;;;5.00;;
71629;SDS011;59479;51.902;8.212;2023-07-30T07:16:37;12.33;;;5.20;;
71629;SDS011;59479;51.902;8.212;2023-07-30T07:19:03;13.40;;;6.13;;
71629;SDS011;59479;51.902;8.212;2023-07-30T07:21:28;16.13;;;6.57;;
71629;SDS011;59479;51.902;8.212;2023-07-30T07:23:53;13.20;;;7.63;;
71629;SDS011;59479;51.902;8.212;2023-07-30T07:26:19;14.93;;;6.43;;
71629;SDS011;59479;51.902;8.212;2023-07-30T07:28:44;13.55;;;6.65;;
71629;SDS011;59479;51.902;8.212;2023-07-30T07:31:10;15.87;;;7.33;;
71629;SDS011;59479;51.902;8.212;2023-07-30T07:33:35;11.03;;;6.87;;
71629;SDS011;59479;51.902;8.212;2023-07-30T07:36:02;13.77;;;7.25;;
71629;SDS011;59479;51.902;8.212;2023-07-30T07:38:32;14.35;;;6.65;;
71629;SDS011;59479;51.902;8.212;2023-07-30T07:40:58;13.75;;;6.80;;
71629;SDS011;59479;51.902;8.212;2023-07-30T07:43:24;11.27;;;6.77;;
71629;SDS011;59479;51.902;8.212;2023-07-30T07:45:49;11.43;;;6.53;;
71629;SDS011;59479;51.902;8.212;2023-07-30T07:48:14;12.37;;;7.13;;
71629;SDS011;59479;51.902;8.212;2023-07-30T07:50:40;14.32;;;7.40;;
71629;SDS011;59479;51.902;8.212;2023-07-30T07:53:05;15.10;;;6.97;;
71629;SDS011;59479;51.902;8.212;2023-07-30T07:55:30;13.13;;;7.47;;
71629;SDS011;59479;51.902;8.212;2023-07-30T07:57:56;14.13;;;7.07;;
71629;SDS011;59479;51.902;8.212;2023-07-30T08:00:21;15.60;;;6.27;;
71629;SDS011;59479;51.902;8.212;2023-07-30T08:02:46;14.17;;;6.90;;
71629;SDS011;59479;51.902;8.212;2023-07-30T08:05:12;12.00;;;6.28;;
71629;SDS011;59479;51.902;8.212;2023-07-30T08:07:38;12.07;;;6.22;;
71629;SDS011;59479;51.902;8.212;2023-07-30T08:10:03;15.47;;;6.40;;
71629;SDS011;59479;51.902;8.212;2023-07-30T08:12:31;15.10;;;7.38;;
71629;SDS011;59479;51.902;8.212;2023-07-30T08:14:57;11.90;;;6.65;;
71629;SDS011;59479;51.902;8.212;2023-07-30T08:17:22;12.53;;;6.40;;
71629;SDS011;59479;51.902;8.212;2023-07-30T08:19:48;12.30;;;6.43;;
71629;SDS011;59479;51.902;8.212;2023-07-30T08:22:13;16.13;;;6.20;;
71629;SDS011;59479;51.902;8.212;2023-07-30T08:24:39;12.57;;;5.67;;
71629;SDS011;59479;51.902;8.212;2023-07-30T08:27:04;15.27;;;5.90;;
71629;SDS011;59479;51.902;8.212;2023-07-30T08:29:29;11.55;;;5.78;;
71629;SDS011;59479;51.902;8.212;2023-07-30T08:31:55;20.60;;;6.10;;
71629;SDS011;59479;51.902;8.212;2023-07-30T08:34:21;16.63;;;5.90;;
71629;SDS011;59479;51.902;8.212;2023-07-30T08:36:47;14.40;;;5.72;;
71629;SDS011;59479;51.902;8.212;2023-07-30T08:39:12;12.07;;;6.40;;
71629;SDS011;59479;51.902;8.212;2023-07-30T08:41:38;11.33;;;5.83;;
71629;SDS011;59479;51.902;8.212;2023-07-30T08:44:03;11.50;;;6.03;;
71629;SDS011;59479;51.902;8.212;2023-07-30T08:46:29;10.98;;;5.55;;
71629;SDS011;59479;51.902;8.212;2023-07-30T08:48:54;12.80;;;4.90;;
71629;SDS011;59479;51.902;8.212;2023-07-30T08:51:22;9.73;;;5.45;;
71629;SDS011;59479;51.902;8.212;2023-07-30T08:53:48;11.83;;;4.93;;
71629;SDS011;59479;51.902;8.212;2023-07-30T08:56:13;11.73;;;5.05;;
71629;SDS011;59479;51.902;8.212;2023-07-30T08:58:39;13.05;;;5.40;;
71629;SDS011;59479;51.902;8.212;2023-07-30T09:01:07;9.80;;;5.47;;
71629;SDS011;59479;51.902;8.212;2023-07-30T09:03:35;13.35;;;4.82;;
71629;SDS011;59479;51.902;8.212;2023-07-30T09:06:03;14.38;;;5.47;;
71629;SDS011;59479;51.902;8.212;2023-07-30T09:08:28;10.53;;;5.60;;
71629;SDS011;59479;51.902;8.212;2023-07-30T09:10:54;12.20;;;5.78;;
71629;SDS011;59479;51.902;8.212;2023-07-30T09:13:20;16.57;;;6.07;;
71629;SDS011;59479;51.902;8.212;2023-07-30T09:15:48;12.95;;;5.82;;
71629;SDS011;59479;51.902;8.212;2023-07-30T09:18:16;14.80;;;7.00;;
71629;SDS011;59479;51.902;8.212;2023-07-30T09:20:42;12.30;;;6.77;;
71629;SDS011;59479;51.902;8.212;2023-07-30T09:23:08;10.60;;;6.43;;
71629;SDS011;59479;51.902;8.212;2023-07-30T09:25:35;12.73;;;5.50;;
71629;SDS011;59479;51.902;8.212;2023-07-30T09:28:00;12.23;;;5.75;;
71629;SDS011;59479;51.902;8.212;2023-07-30T09:30:26;9.70;;;5.17;;
71629;SDS011;59479;51.902;8.212;2023-07-30T09:32:52;9.02;;;4.13;;
71629;SDS011;59479;51.902;8.212;2023-07-30T09:35:19;7.65;;;4.53;;
71629;SDS011;59479;51.902;8.212;2023-07-30T09:37:45;6.82;;;4.00;;
71629;SDS011;59479;51.902;8.212;2023-07-30T09:40:12;10.73;;;4.40;;
71629;SDS011;59479;51.902;8.212;2023-07-30T09:42:41;6.93;;;4.15;;
71629;SDS011;59479;51.902;8.212;2023-07-30T09:45:21;9.90;;;4.25;;
71629;SDS011;59479;51.902;8.212;2023-07-30T09:47:49;9.90;;;4.55;;
71629;SDS011;59479;51.902;8.212;2023-07-30T09:50:15;9.98;;;4.53;;
71629;SDS011;59479;51.902;8.212;2023-07-30T09:52:41;9.85;;;4.82;;
71629;SDS011;59479;51.902;8.212;2023-07-30T09:55:07;10.02;;;5.20;;
71629;SDS011;59479;51.902;8.212;2023-07-30T09:57:33;8.10;;;4.17;;
71629;SDS011;59479;51.902;8.212;2023-07-30T09:59:58;7.40;;;4.37;;
71629;SDS011;59479;51.902;8.212;2023-07-30T10:02:24;14.70;;;4.50;;
71629;SDS011;59479;51.902;8.212;2023-07-30T10:04:52;7.97;;;4.45;;
71629;SDS011;59479;51.902;8.212;2023-07-30T10:07:22;12.27;;;4.57;;
71629;SDS011;59479;51.902;8.212;2023-07-30T10:09:50;8.68;;;4.20;;
71629;SDS011;59479;51.902;8.212;2023-07-30T10:12:20;9.13;;;4.53;;
71629;SDS011;59479;51.902;8.212;2023-07-30T10:14:49;8.65;;;3.90;;
71629;SDS011;59479;51.902;8.212;2023-07-30T10:17:14;7.67;;;4.17;;
71629;SDS011;59479;51.902;8.212;2023-07-30T10:19:42;7.75;;;3.85;;
71629;SDS011;59479;51.902;8.212;2023-07-30T10:24:37;10.60;;;4.10;;
71629;SDS011;59479;51.902;8.212;2023-07-30T10:27:06;11.07;;;4.05;;
71629;SDS011;59479;51.902;8.212;2023-07-30T10:29:34;9.68;;;3.95;;
71629;SDS011;59479;51.902;8.212;2023-07-30T10:32:04;8.32;;;4.25;;
71629;SDS011;59479;51.902;8.212;2023-07-30T10:34:46;9.18;;;3.92;;
71629;SDS011;59479;51.902;8.212;2023-07-30T10:37:18;11.80;;;4.35;;
71629;SDS011;59479;51.902;8.212;2023-07-30T10:39:47;7.40;;;4.20;;
71629;SDS011;59479;51.902;8.212;2023-07-30T10:42:13;7.70;;;4.28;;
71629;SDS011;59479;51.902;8.212;2023-07-30T10:44:39;7.70;;;4.45;;
71629;SDS011;59479;51.902;8.212;2023-07-30T10:47:09;7.68;;;4.43;;
71629;SDS011;59479;51.902;8.212;2023-07-30T10:49:38;7.95;;;3.45;;
71629;SDS011;59479;51.902;8.212;2023-07-30T10:52:05;7.82;;;3.90;;
71629;SDS011;59479;51.902;8.212;2023-07-30T10:54:34;8.75;;;3.95;;
71629;SDS011;59479;51.902;8.212;2023-07-30T10:57:00;6.43;;;3.42;;
71629;SDS011;59479;51.902;8.212;2023-07-30T10:59:25;8.33;;;3.60;;
71629;SDS011;59479;51.902;8.212;2023-07-30T11:01:51;9.37;;;3.60;;
71629;SDS011;59479;51.902;8.212;2023-07-30T11:04:18;7.95;;;3.83;;
71629;SDS011;59479;51.902;8.212;2023-07-30T11:06:48;9.52;;;3.40;;
71629;SDS011;59479;51.902;8.212;2023-07-30T11:11:45;9.05;;;3.45;;
71629;SDS011;59479;51.902;8.212;2023-07-30T11:14:18;8.00;;;3.30;;
71629;SDS011;59479;51.902;8.212;2023-07-30T11:16:48;8.70;;;3.25;;
71629;SDS011;59479;51.902;8.212;2023-07-30T11:19:14;6.68;;;3.30;;
71629;SDS011;59479;51.902;8.212;2023-07-30T11:21:49;7.93;;;3.50;;
71629;SDS011;59479;51.902;8.212;2023-07-30T11:24:16;5.03;;;2.75;;
71629;SDS011;59479;51.902;8.212;2023-07-30T11:26:42;4.73;;;3.00;;
71629;SDS011;59479;51.902;8.212;2023-07-30T11:29:14;4.18;;;2.40;;
71629;SDS011;59479;51.902;8.212;2023-07-30T11:31:42;6.30;;;2.97;;
71629;SDS011;59479;51.902;8.212;2023-07-30T11:34:08;6.67;;;2.27;;
71629;SDS011;59479;51.902;8.212;2023-07-30T11:36:33;6.03;;;2.85;;
71629;SDS011;59479;51.902;8.212;2023-07-30T11:38:58;9.23;;;2.50;;
71629;SDS011;59479;51.902;8.212;2023-07-30T11:41:24;6.05;;;2.45;;
71629;SDS011;59479;51.902;8.212;2023-07-30T11:43:50;9.57;;;2.55;;
71629;SDS011;59479;51.902;8.212;2023-07-30T11:46:17;6.35;;;2.30;;
71629;SDS011;59479;51.902;8.212;2023-07-30T11:48:46;5.20;;;2.63;;
71629;SDS011;59479;51.902;8.212;2023-07-30T11:51:45;4.38;;;2.42;;
71629;SDS011;59479;51.902;8.212;2023-07-30T11:54:04;5.22;;;2.03;;
71629;SDS011;59479;51.902;8.212;2023-07-30T11:56:32;6.20;;;2.50;;
71629;SDS011;59479;51.902;8.212;2023-07-30T11:59:01;6.63;;;2.22;;
71629;SDS011;59479;51.902;8.212;2023-07-30T12:01:30;4.43;;;2.30;;
71629;SDS011;59479;51.902;8.212;2023-07-30T12:03:57;5.82;;;2.17;;
71629;SDS011;59479;51.902;8.212;2023-07-30T12:06:23;5.63;;;2.08;;
71629;SDS011;59479;51.902;8.212;2023-07-30T12:08:49;5.13;;;2.25;;
71629;SDS011;59479;51.902;8.212;2023-07-30T12:11:16;6.77;;;2.13;;
71629;SDS011;59479;51.902;8.212;2023-07-30T12:13:45;4.00;;;1.65;;
71629;SDS011;59479;51.902;8.212;2023-07-30T12:16:11;5.63;;;1.92;;
71629;SDS011;59479;51.902;8.212;2023-07-30T12:18:37;6.40;;;2.25;;
71629;SDS011;59479;51.902;8.212;2023-07-30T12:21:04;4.15;;;1.90;;
71629;SDS011;59479;51.902;8.212;2023-07-30T12:23:32;5.43;;;2.00;;
71629;SDS011;59479;51.902;8.212;2023-07-30T12:25:57;5.75;;;1.58;;
71629;SDS011;59479;51.902;8.212;2023-07-30T12:28:22;5.80;;;1.83;;
71629;SDS011;59479;51.902;8.212;2023-07-30T12:30:48;3.97;;;1.83;;
71629;SDS011;59479;51.902;8.212;2023-07-30T12:33:13;5.13;;;2.27;;
71629;SDS011;59479;51.902;8.212;2023-07-30T12:35:38;5.70;;;1.90;;
71629;SDS011;59479;51.902;8.212;2023-07-30T12:38:03;3.87;;;1.70;;
71629;SDS011;59479;51.902;8.212;2023-07-30T12:40:29;5.10;;;1.63;;
71629;SDS011;59479;51.902;8.212;2023-07-30T12:42:59;4.78;;;1.75;;
71629;SDS011;59479;51.902;8.212;2023-07-30T12:45:25;4.45;;;1.85;;
71629;SDS011;59479;51.902;8.212;2023-07-30T12:47:51;4.77;;;1.60;;
71629;SDS011;59479;51.902;8.212;2023-07-30T12:50:16;6.60;;;1.83;;
71629;SDS011;59479;51.902;8.212;2023-07-30T12:52:42;6.37;;;2.10;;
71629;SDS011;59479;51.902;8.212;2023-07-30T12:55:07;5.80;;;1.58;;
71629;SDS011;59479;51.902;8.212;2023-07-30T12:57:32;4.93;;;1.50;;
71629;SDS011;59479;51.902;8.212;2023-07-30T12:59:58;4.77;;;1.50;;
71629;SDS011;59479;51.902;8.212;2023-07-30T13:02:23;5.43;;;1.60;;
71629;SDS011;59479;51.902;8.212;2023-07-30T13:04:48;4.23;;;1.60;;
71629;SDS011;59479;51.902;8.212;2023-07-30T13:07:14;5.37;;;1.33;;
71629;SDS011;59479;51.902;8.212;2023-07-30T13:09:39;5.75;;;1.58;;
71629;SDS011;59479;51.902;8.212;2023-07-30T13:12:04;4.72;;;1.58;;
71629;SDS011;59479;51.902;8.212;2023-07-30T13:14:30;6.37;;;1.27;;
71629;SDS011;59479;51.902;8.212;2023-07-30T13:16:56;4.00;;;1.77;;
71629;SDS011;59479;51.902;8.212;2023-07-30T13:19:21;5.07;;;1.67;;
71629;SDS011;59479;51.902;8.212;2023-07-30T13:21:46;5.63;;;1.88;;
71629;SDS011;59479;51.902;8.212;2023-07-30T13:24:12;4.13;;;1.60;;
71629;SDS011;59479;51.902;8.212;2023-07-30T13:26:37;3.10;;;1.60;;
71629;SDS011;59479;51.902;8.212;2023-07-30T13:29:03;4.93;;;1.17;;
71629;SDS011;59479;51.902;8.212;2023-07-30T13:31:29;2.90;;;1.20;;
71629;SDS011;59479;51.902;8.212;2023-07-30T13:33:55;3.53;;;1.35;;
71629;SDS011;59479;51.902;8.212;2023-07-30T13:36:20;2.40;;;0.80;;
71629;SDS011;59479;51.902;8.212;2023-07-30T13:38:46;2.87;;;1.20;;
71629;SDS011;59479;51.902;8.212;2023-07-30T13:41:11;2.40;;;0.97;;
71629;SDS011;59479;51.902;8.212;2023-07-30T13:43:36;2.40;;;0.90;;
71629;SDS011;59479;51.902;8.212;2023-07-30T13:46:02;2.50;;;0.80;;
71629;SDS011;59479;51.902;8.212;2023-07-30T13:48:27;3.07;;;1.00;;
71629;SDS011;59479;51.902;8.212;2023-07-30T13:50:52;4.28;;;0.95;;
71629;SDS011;59479;51.902;8.212;2023-07-30T13:53:18;3.73;;;1.20;;
71629;SDS011;59479;51.902;8.212;2023-07-30T13:55:44;3.92;;;1.05;;
71629;SDS011;59479;51.902;8.212;2023-07-30T13:58:10;4.40;;;1.17;;
71629;SDS011;59479;51.902;8.212;2023-07-30T14:00:36;3.40;;;0.88;;
71629;SDS011;59479;51.902;8.212;2023-07-30T14:03:01;4.03;;;0.93;;
71629;SDS011;59479;51.902;8.212;2023-07-30T14:05:27;3.27;;;1.00;;
71629;SDS011;59479;51.902;8.212;2023-07-30T14:07:55;4.80;;;1.00;;
71629;SDS011;59479;51.902;8.212;2023-07-30T14:10:24;4.85;;;0.90;;
71629;SDS011;59479;51.902;8.212;2023-07-30T14:12:50;3.97;;;1.10;;
71629;SDS011;59479;51.902;8.212;2023-07-30T14:15:15;3.03;;;1.00;;
71629;SDS011;59479;51.902;8.212;2023-07-30T14:17:41;2.93;;;1.00;;
71629;SDS011;59479;51.902;8.212;2023-07-30T14:20:07;2.53;;;1.00;;
71629;SDS011;59479;51.902;8.212;2023-07-30T14:22:34;6.13;;;1.38;;
71629;SDS011;59479;51.902;8.212;2023-07-30T14:24:59;4.82;;;1.50;;
71629;SDS011;59479;51.902;8.212;2023-07-30T14:27:25;3.33;;;1.07;;
71629;SDS011;59479;51.902;8.212;2023-07-30T14:29:50;3.77;;;1.37;;
71629;SDS011;59479;51.902;8.212;2023-07-30T14:32:17;2.83;;;1.10;;
71629;SDS011;59479;51.902;8.212;2023-07-30T14:34:43;3.45;;;1.30;;
71629;SDS011;59479;51.902;8.212;2023-07-30T14:37:08;6.07;;;1.30;;
71629;SDS011;59479;51.902;8.212;2023-07-30T14:39:33;4.60;;;1.10;;
71629;SDS011;59479;51.902;8.212;2023-07-30T14:41:59;3.90;;;1.17;;
71629;SDS011;59479;51.902;8.212;2023-07-30T14:44:24;4.60;;;1.23;;
71629;SDS011;59479;51.902;8.212;2023-07-30T14:46:50;3.83;;;1.17;;